createdAt,value
2019-01-31T00:02:06.877Z,22.96
2019-01-31T00:05:29.349Z,22.96
2019-01-31T00:09:14.285Z,22.96
2019-01-31T00:13:06.481Z,22.95
2019-01-31T00:16:34.911Z,22.95
2019-01-31T00:20:34.916Z,22.94
2019-01-31T00:23:47.446Z,22.94
2019-01-31T00:27:29.262Z,22.93
2019-01-31T00:30:58.893Z,22.93
2019-01-31T00:34:39.016Z,22.92
2019-01-31T00:38:16.032Z,22.93
2019-01-31T00:41:44.422Z,22.92
2019-01-31T00:44:59.779Z,22.90
2019-01-31T00:48:57.056Z,22.90
2019-01-31T00:52:43.845Z,22.91
2019-01-31T00:56:07.123Z,22.88
2019-01-31T00:59:51.890Z,22.89
2019-01-31T01:03:21.020Z,22.89
2019-01-31T01:07:05.149Z,22.88
2019-01-31T01:10:37.338Z,22.86
2019-01-31T01:14:00.570Z,22.85
2019-01-31T01:17:11.309Z,22.85
2019-01-31T01:20:45.973Z,22.84
2019-01-31T01:23:58.701Z,22.83
2019-01-31T01:27:33.123Z,22.84
2019-01-31T01:31:14.524Z,22.83
2019-01-31T01:35:01.067Z,22.83
2019-01-31T01:38:33.793Z,22.82
2019-01-31T01:42:30.469Z,22.81
2019-01-31T01:45:57.326Z,22.81
2019-01-31T01:49:31.541Z,22.82
2019-01-31T01:52:54.263Z,22.81
2019-01-31T01:56:41.405Z,22.82
2019-01-31T02:00:28.630Z,22.81
2019-01-31T02:03:56.077Z,22.80
2019-01-31T02:07:23.542Z,22.81
2019-01-31T02:11:00.436Z,22.81
2019-01-31T02:14:30.142Z,22.80
2019-01-31T02:18:18.512Z,22.80
2019-01-31T02:21:45.879Z,22.80
2019-01-31T02:25:26.079Z,22.80
2019-01-31T02:29:17.145Z,22.80
2019-01-31T02:33:10.714Z,22.79
2019-01-31T02:36:24.876Z,22.78
2019-01-31T02:39:48.227Z,22.78
2019-01-31T02:43:25.316Z,22.77
2019-01-31T02:46:53.366Z,22.77
2019-01-31T02:50:40.077Z,22.76
2019-01-31T02:54:14.851Z,22.75
2019-01-31T02:57:32.944Z,22.76
2019-01-31T03:00:54.601Z,22.74
2019-01-31T03:04:23.701Z,22.73
2019-01-31T03:08:10.239Z,22.74
2019-01-31T03:11:55.789Z,22.73
2019-01-31T03:15:26.023Z,22.75
2019-01-31T03:19:04.137Z,22.74
2019-01-31T03:22:44.886Z,22.73
2019-01-31T03:26:21.178Z,22.73
2019-01-31T03:29:43.329Z,22.73
2019-01-31T03:33:05.916Z,22.74
2019-01-31T03:36:59.147Z,22.72
2019-01-31T03:40:36.198Z,22.73
2019-01-31T03:43:57.042Z,22.73
2019-01-31T03:47:58.005Z,22.72
2019-01-31T03:51:46.007Z,22.73
2019-01-31T03:55:06.830Z,22.72
2019-01-31T03:58:27.131Z,22.72
2019-01-31T04:01:58.480Z,22.72
2019-01-31T04:05:58.807Z,22.71
2019-01-31T04:09:04.500Z,22.71
2019-01-31T04:12:07.947Z,22.70
2019-01-31T04:15:12.495Z,22.70
2019-01-31T04:18:15.958Z,22.69
2019-01-31T04:21:19.398Z,22.68
2019-01-31T04:24:22.977Z,22.68
2019-01-31T04:27:26.494Z,22.68
2019-01-31T04:30:29.998Z,22.66
2019-01-31T04:33:33.423Z,22.65
2019-01-31T04:36:36.894Z,22.66
2019-01-31T04:39:40.381Z,22.66
2019-01-31T04:42:43.799Z,22.67
2019-01-31T04:45:47.279Z,22.66
2019-01-31T04:48:50.787Z,22.66
2019-01-31T04:51:54.314Z,22.66
2019-01-31T04:54:57.783Z,22.66
2019-01-31T04:58:01.211Z,22.66
2019-01-31T05:01:04.721Z,22.65
2019-01-31T05:04:08.295Z,22.66
2019-01-31T05:07:11.803Z,22.66
2019-01-31T05:10:15.283Z,22.66
2019-01-31T05:13:19.815Z,22.66
2019-01-31T05:16:23.347Z,22.66
2019-01-31T05:19:26.838Z,22.66
2019-01-31T05:22:30.326Z,22.66
2019-01-31T05:25:34.848Z,22.66
2019-01-31T05:28:38.337Z,22.65
2019-01-31T05:31:42.863Z,22.66
2019-01-31T05:34:46.353Z,22.65
2019-01-31T05:37:49.904Z,22.64
2019-01-31T05:40:55.767Z,22.64
2019-01-31T05:43:58.532Z,22.62
2019-01-31T05:47:02.003Z,22.63
2019-01-31T05:50:06.955Z,22.62
2019-01-31T05:53:10.466Z,22.63
2019-01-31T05:56:13.952Z,22.62
2019-01-31T05:59:17.453Z,22.61
2019-01-31T06:02:20.957Z,22.59
2019-01-31T06:05:24.454Z,22.61
2019-01-31T06:08:27.951Z,22.60
2019-01-31T06:11:31.444Z,22.60
2019-01-31T06:14:35.875Z,22.61
2019-01-31T06:17:39.505Z,22.59
2019-01-31T06:20:42.970Z,22.60
2019-01-31T06:23:46.472Z,22.60
2019-01-31T06:26:50.005Z,22.60
2019-01-31T06:29:53.502Z,22.61
2019-01-31T06:32:56.984Z,22.60
2019-01-31T06:36:01.470Z,22.60
2019-01-31T06:39:07.887Z,22.61
2019-01-31T06:42:12.428Z,22.59
2019-01-31T06:45:17.950Z,22.60
2019-01-31T06:48:22.472Z,22.59
2019-01-31T06:51:25.963Z,22.60
2019-01-31T06:54:29.483Z,22.60
2019-01-31T06:57:34.127Z,22.59
2019-01-31T07:00:37.703Z,22.59
2019-01-31T07:03:41.208Z,22.59
2019-01-31T07:06:44.702Z,22.58
2019-01-31T07:09:49.217Z,22.59
2019-01-31T07:12:52.742Z,22.58
2019-01-31T07:15:56.245Z,22.57
2019-01-31T07:18:59.747Z,22.58
2019-01-31T07:22:03.235Z,22.57
2019-01-31T07:25:10.541Z,22.57
2019-01-31T07:28:14.026Z,22.57
2019-01-31T07:31:17.457Z,22.56
2019-01-31T07:34:20.919Z,22.56
2019-01-31T07:37:24.424Z,22.56
2019-01-31T07:40:27.921Z,22.56
2019-01-31T07:43:31.433Z,22.56
2019-01-31T07:46:34.841Z,22.56
2019-01-31T07:49:38.345Z,22.56
2019-01-31T07:52:41.933Z,22.56
2019-01-31T07:55:46.455Z,22.57
2019-01-31T07:58:49.958Z,22.57
2019-01-31T08:01:53.364Z,22.57
2019-01-31T08:04:56.846Z,22.57
2019-01-31T08:08:00.482Z,22.57
2019-01-31T08:11:05.999Z,22.57
2019-01-31T08:14:09.560Z,22.57
2019-01-31T08:17:13.148Z,22.58
2019-01-31T08:20:16.774Z,22.60
2019-01-31T08:23:20.216Z,22.62
2019-01-31T08:26:23.706Z,22.63
2019-01-31T08:29:27.134Z,22.71
2019-01-31T08:32:30.610Z,22.77
2019-01-31T08:35:34.017Z,22.76
2019-01-31T08:38:37.521Z,22.80
2019-01-31T08:41:41.022Z,22.81
2019-01-31T08:44:44.509Z,22.86
2019-01-31T08:47:49.135Z,22.88
2019-01-31T08:50:52.843Z,22.90
2019-01-31T08:53:56.275Z,22.88
2019-01-31T08:56:59.771Z,22.89
2019-01-31T09:00:03.476Z,22.87
2019-01-31T09:03:06.952Z,22.91
2019-01-31T09:06:10.439Z,22.90
2019-01-31T09:09:14.528Z,22.91
2019-01-31T09:12:18.054Z,22.95
2019-01-31T09:15:23.311Z,22.97
2019-01-31T09:18:28.753Z,22.96
2019-01-31T09:21:39.523Z,23.01
2019-01-31T09:24:53.166Z,23.00
2019-01-31T09:28:28.199Z,23.02
2019-01-31T09:32:15.762Z,23.10
2019-01-31T09:35:45.611Z,23.13
2019-01-31T09:39:35.196Z,23.17
2019-01-31T09:43:19.118Z,23.20
2019-01-31T09:46:52.173Z,23.23
2019-01-31T09:50:15.779Z,23.26
2019-01-31T09:53:42.503Z,23.30
2019-01-31T09:57:17.837Z,23.32
2019-01-31T10:00:47.345Z,23.33
2019-01-31T10:04:26.566Z,23.34
2019-01-31T10:07:50.977Z,23.36
2019-01-31T10:11:19.080Z,23.36
2019-01-31T10:14:39.217Z,23.36
2019-01-31T10:17:57.797Z,23.36
2019-01-31T10:21:42.122Z,23.40
2019-01-31T10:25:18.016Z,23.40
2019-01-31T10:29:02.076Z,23.40
2019-01-31T10:32:36.299Z,23.43
2019-01-31T10:36:30.519Z,23.42
2019-01-31T10:40:20.283Z,23.44
2019-01-31T10:43:44.275Z,23.47
2019-01-31T10:47:22.369Z,23.49
2019-01-31T10:50:50.546Z,23.46
2019-01-31T10:54:37.970Z,23.45
2019-01-31T10:58:31.089Z,23.46
2019-01-31T11:02:06.657Z,23.51
2019-01-31T11:05:50.491Z,23.50
2019-01-31T11:09:44.676Z,23.49
2019-01-31T11:13:10.796Z,23.52
2019-01-31T11:16:39.485Z,23.53
2019-01-31T11:20:14.059Z,23.53
2019-01-31T11:24:05.303Z,23.53
2019-01-31T11:27:37.870Z,23.51
2019-01-31T11:31:25.629Z,23.52
2019-01-31T11:35:15.632Z,23.53
2019-01-31T11:38:51.772Z,23.52
2019-01-31T11:42:27.339Z,23.54
2019-01-31T11:46:22.961Z,23.55
2019-01-31T11:49:53.173Z,23.57
2019-01-31T11:53:27.780Z,23.56
2019-01-31T11:57:25.839Z,23.57
2019-01-31T12:00:29.399Z,23.58
2019-01-31T12:03:35.461Z,23.60
2019-01-31T12:06:39.067Z,23.63
2019-01-31T12:09:42.545Z,23.63
2019-01-31T12:12:46.058Z,23.63
2019-01-31T12:15:49.566Z,23.68
2019-01-31T12:18:53.069Z,23.68
2019-01-31T12:21:56.562Z,23.68
2019-01-31T12:25:00.368Z,23.68
2019-01-31T12:28:03.955Z,23.71
2019-01-31T12:31:07.468Z,23.73
2019-01-31T12:34:10.956Z,23.73
2019-01-31T12:37:14.460Z,23.74
2019-01-31T12:40:18.312Z,23.76
2019-01-31T12:43:21.871Z,23.76
2019-01-31T12:46:25.357Z,23.76
2019-01-31T12:49:28.889Z,23.79
2019-01-31T12:52:32.377Z,23.80
2019-01-31T12:55:35.877Z,23.81
2019-01-31T12:58:39.515Z,23.82
2019-01-31T13:01:43.084Z,23.81
2019-01-31T13:04:46.607Z,23.84
2019-01-31T13:07:50.109Z,23.84
2019-01-31T13:10:53.605Z,23.86
2019-01-31T13:13:57.107Z,23.89
2019-01-31T13:17:01.626Z,23.90
2019-01-31T13:20:11.105Z,23.86
2019-01-31T13:23:14.596Z,23.83
2019-01-31T13:26:18.068Z,23.82
2019-01-31T13:29:22.682Z,23.82
2019-01-31T13:32:26.498Z,23.83
2019-01-31T13:35:30.052Z,23.81
2019-01-31T13:38:33.494Z,23.78
2019-01-31T13:41:37.292Z,23.78
2019-01-31T13:44:40.901Z,23.77
2019-01-31T13:47:44.424Z,23.77
2019-01-31T13:50:47.922Z,23.75
2019-01-31T13:53:52.431Z,23.75
2019-01-31T13:56:55.934Z,23.73
2019-01-31T13:59:59.557Z,23.74
2019-01-31T14:03:02.967Z,23.72
2019-01-31T14:06:06.452Z,23.71
2019-01-31T14:09:12.110Z,23.70
2019-01-31T14:12:15.711Z,23.68
2019-01-31T14:15:32.496Z,23.68
2019-01-31T14:18:26.810Z,23.68
2019-01-31T14:21:30.291Z,23.67
2019-01-31T14:24:33.799Z,23.66
2019-01-31T14:27:39.362Z,23.67
2019-01-31T14:30:43.871Z,23.68
2019-01-31T14:33:47.362Z,23.67
2019-01-31T14:36:52.910Z,23.68
2019-01-31T14:39:57.435Z,23.67
2019-01-31T14:43:00.952Z,23.67
2019-01-31T14:46:04.573Z,23.67
2019-01-31T14:49:09.178Z,23.64
2019-01-31T14:52:13.708Z,23.61
2019-01-31T14:55:17.208Z,23.60
2019-01-31T14:58:20.707Z,23.61
2019-01-31T15:01:24.199Z,23.60
2019-01-31T15:04:28.724Z,23.59
2019-01-31T15:07:32.234Z,23.57
2019-01-31T15:10:35.722Z,23.56
2019-01-31T15:13:39.229Z,23.54
2019-01-31T15:16:42.766Z,23.53
2019-01-31T15:19:46.234Z,23.50
2019-01-31T15:22:49.729Z,23.50
2019-01-31T15:25:53.565Z,23.48
2019-01-31T15:28:58.166Z,23.49
2019-01-31T15:32:02.722Z,23.47
2019-01-31T15:35:06.612Z,23.47
2019-01-31T15:38:10.099Z,23.44
2019-01-31T15:41:13.621Z,23.44
2019-01-31T15:44:17.100Z,23.42
2019-01-31T15:47:20.605Z,23.44
2019-01-31T15:50:25.169Z,23.44
2019-01-31T15:53:28.631Z,23.43
2019-01-31T15:56:32.136Z,23.43
2019-01-31T15:59:35.796Z,23.43
2019-01-31T16:02:39.346Z,23.42
2019-01-31T16:05:42.765Z,23.42
2019-01-31T16:08:46.337Z,23.42
2019-01-31T16:11:50.876Z,23.41
2019-01-31T16:14:55.258Z,23.40
2019-01-31T16:17:59.127Z,23.39
2019-01-31T16:21:02.867Z,23.38
2019-01-31T16:24:08.707Z,23.40
2019-01-31T16:27:13.326Z,23.39
2019-01-31T16:30:17.019Z,23.39
2019-01-31T16:33:21.708Z,23.39
2019-01-31T16:36:25.329Z,23.38
2019-01-31T16:39:29.237Z,23.39
2019-01-31T16:42:33.091Z,23.45
2019-01-31T16:45:36.756Z,23.48
2019-01-31T16:48:41.529Z,23.51
2019-01-31T16:51:45.555Z,23.51
2019-01-31T16:54:49.100Z,23.54
2019-01-31T16:57:52.791Z,23.53
2019-01-31T17:00:56.411Z,23.60
2019-01-31T17:03:59.932Z,23.60
2019-01-31T17:07:03.495Z,23.66
2019-01-31T17:10:07.316Z,23.66
2019-01-31T17:13:10.844Z,23.67
2019-01-31T17:16:14.269Z,23.71
2019-01-31T17:19:17.743Z,23.74
2019-01-31T17:22:22.046Z,23.76
2019-01-31T17:25:26.536Z,23.76
2019-01-31T17:28:29.976Z,23.77
2019-01-31T17:31:33.474Z,23.80
2019-01-31T17:34:36.986Z,23.81
2019-01-31T17:37:41.711Z,23.83
2019-01-31T17:40:45.203Z,23.82
2019-01-31T17:43:48.742Z,23.81
2019-01-31T17:46:53.223Z,23.84
2019-01-31T17:49:56.724Z,23.81
2019-01-31T17:53:00.260Z,23.75
2019-01-31T17:56:03.730Z,23.75
2019-01-31T17:59:08.267Z,23.73
2019-01-31T18:02:11.754Z,23.72
2019-01-31T18:05:15.181Z,23.70
2019-01-31T18:08:18.779Z,23.70
2019-01-31T18:11:22.251Z,23.68
2019-01-31T18:14:26.783Z,23.70
2019-01-31T18:17:30.503Z,23.68
2019-01-31T18:20:34.141Z,23.68
2019-01-31T18:23:37.728Z,23.68
2019-01-31T18:26:41.203Z,23.67
2019-01-31T18:29:44.717Z,23.67
2019-01-31T18:32:49.216Z,23.64
2019-01-31T18:35:52.790Z,23.67
2019-01-31T18:38:57.655Z,23.67
2019-01-31T18:42:01.380Z,23.61
2019-01-31T18:45:06.623Z,23.61
2019-01-31T18:48:11.034Z,23.63
2019-01-31T18:51:16.209Z,23.60
2019-01-31T18:54:19.913Z,23.61
2019-01-31T18:57:23.383Z,23.60
2019-01-31T19:00:29.910Z,23.60
2019-01-31T19:03:33.447Z,23.59
2019-01-31T19:06:36.865Z,23.59
2019-01-31T19:09:40.508Z,23.57
2019-01-31T19:12:43.954Z,23.59
2019-01-31T19:15:47.479Z,23.56
2019-01-31T19:18:50.980Z,23.57
2019-01-31T19:24:56.953Z,23.55
2019-01-31T19:28:00.429Z,23.56
2019-01-31T19:31:03.973Z,23.56
2019-01-31T19:34:07.434Z,23.55
2019-01-31T19:37:12.871Z,23.55
2019-01-31T19:40:18.710Z,23.57
2019-01-31T19:43:22.240Z,23.56
2019-01-31T19:46:25.755Z,23.56
2019-01-31T19:49:30.274Z,23.56
2019-01-31T19:52:33.781Z,23.55
2019-01-31T19:55:37.272Z,23.55
2019-01-31T19:58:40.826Z,23.53
2019-01-31T20:01:45.333Z,23.54
2019-01-31T20:04:48.872Z,23.53
2019-01-31T20:07:52.312Z,23.52
2019-01-31T20:10:55.823Z,23.52
2019-01-31T20:13:59.340Z,23.52
2019-01-31T20:17:03.470Z,23.50
2019-01-31T20:20:10.780Z,23.51
2019-01-31T20:23:14.343Z,23.52
2019-01-31T20:26:17.821Z,23.51
2019-01-31T20:29:21.355Z,23.51
2019-01-31T20:32:24.837Z,23.52
2019-01-31T20:35:28.446Z,23.51
2019-01-31T20:38:32.018Z,23.51
2019-01-31T20:41:35.532Z,23.51
2019-01-31T20:44:39.044Z,23.50
2019-01-31T20:47:42.530Z,23.51
2019-01-31T20:50:46.025Z,23.52
2019-01-31T20:53:49.794Z,23.52
2019-01-31T20:56:53.246Z,23.52
2019-01-31T20:59:56.734Z,23.52
2019-01-31T21:03:00.244Z,23.53
2019-01-31T21:06:04.756Z,23.52
2019-01-31T21:09:08.347Z,23.51
2019-01-31T21:12:12.075Z,23.51
2019-01-31T21:15:17.918Z,23.50
2019-01-31T21:18:21.425Z,23.46
2019-01-31T21:21:24.966Z,23.41
2019-01-31T21:24:28.435Z,23.40
2019-01-31T21:27:32.951Z,23.39
2019-01-31T21:30:38.410Z,23.37
2019-01-31T21:33:43.024Z,23.35
2019-01-31T21:36:46.527Z,23.32
2019-01-31T21:39:50.035Z,23.32
2019-01-31T21:42:53.517Z,23.29
2019-01-31T21:45:57.027Z,23.29
2019-01-31T21:49:01.546Z,23.27
2019-01-31T21:52:05.050Z,23.24
2019-01-31T21:55:09.177Z,23.22
2019-01-31T21:58:12.721Z,23.21
2019-01-31T22:01:17.195Z,23.19
2019-01-31T22:04:21.731Z,23.18
2019-01-31T22:07:25.139Z,23.17
2019-01-31T22:10:28.701Z,23.16
2019-01-31T22:13:33.252Z,23.14
2019-01-31T22:16:36.751Z,23.14
2019-01-31T22:19:40.241Z,23.13
2019-01-31T22:22:43.745Z,23.11
2019-01-31T22:25:47.245Z,23.09
2019-01-31T22:28:50.783Z,23.10
2019-01-31T22:31:57.352Z,23.09
2019-01-31T22:35:00.815Z,23.08
2019-01-31T22:38:04.325Z,23.05
2019-01-31T22:41:07.817Z,23.05
2019-01-31T22:44:11.325Z,23.04
2019-01-31T22:47:25.822Z,23.03
2019-01-31T22:50:21.699Z,23.01
2019-01-31T22:53:25.309Z,23.01
2019-01-31T22:56:29.843Z,22.99
2019-01-31T22:59:35.380Z,22.98
2019-01-31T23:02:38.884Z,22.97
2019-01-31T23:05:43.411Z,22.96
2019-01-31T23:08:46.813Z,22.94
2019-01-31T23:11:50.424Z,22.94
2019-01-31T23:14:53.907Z,22.92
2019-01-31T23:17:57.498Z,22.91
2019-01-31T23:21:00.926Z,22.90
2019-01-31T23:24:04.738Z,22.90
2019-01-31T23:27:09.358Z,22.88
2019-01-31T23:30:12.861Z,22.89
2019-01-31T23:33:16.366Z,22.87
2019-01-31T23:36:20.865Z,22.86
2019-01-31T23:39:24.366Z,22.86
2019-01-31T23:42:27.878Z,22.85
2019-01-31T23:45:31.377Z,22.86
2019-01-31T23:48:34.879Z,22.84
2019-01-31T23:51:39.404Z,22.83
2019-01-31T23:54:42.890Z,22.83
2019-01-31T23:57:46.397Z,22.83
